Time;durP1;ratioP1;P1;durP2;ratioP2;P2;SDS_P1;SDS_P2;PMS_P1;PMS_P2;Temp;Humidity;BMP_temperature;BMP_pressure;BME280_temperature;BME280_humidity;BME280_pressure;Samples;Min_cycle;Max_cycle;Signal;HPM_P1;HPM_P2
2023/05/23 00:00:28;;;;;;;5.50;3.20;;;;;;;;;;107692;286;38775;-33
2023/05/23 00:03:24;;;;;;;6.20;3.20;;;;;;;;;;107638;278;43079;-33
2023/05/23 00:06:03;;;;;;;5.60;3.50;;;;;;;;;;107537;283;175538;-33
2023/05/23 00:08:39;;;;;;;5.30;3.10;;;;;;;;;;107653;283;42116;-33
2023/05/23 00:11:15;;;;;;;4.90;3.20;;;;;;;;;;107683;286;38526;-33
2023/05/23 00:13:50;;;;;;;5.00;3.00;;;;;;;;;;107646;286;40003;-34
2023/05/23 00:16:30;;;;;;;5.10;3.40;;;;;;;;;;107680;283;42853;-33
2023/05/23 00:19:04;;;;;;;5.10;3.30;;;;;;;;;;107693;286;43184;-33
2023/05/23 00:21:40;;;;;;;5.10;3.10;;;;;;;;;;107690;286;38775;-33
2023/05/23 00:24:17;;;;;;;5.40;3.30;;;;;;;;;;107621;283;39906;-33
2023/05/23 00:26:54;;;;;;;5.60;3.10;;;;;;;;;;107666;278;42860;-33
2023/05/23 00:29:29;;;;;;;4.60;3.10;;;;;;;;;;107681;283;41865;-33
2023/05/23 00:32:07;;;;;;;5.40;3.20;;;;;;;;;;107680;286;38959;-34
2023/05/23 00:34:44;;;;;;;5.90;3.30;;;;;;;;;;107636;283;39417;-33
2023/05/23 00:37:21;;;;;;;5.00;3.30;;;;;;;;;;107680;285;42826;-33
2023/05/23 00:39:55;;;;;;;5.40;3.40;;;;;;;;;;107662;286;41935;-33
2023/05/23 00:42:31;;;;;;;4.90;3.30;;;;;;;;;;107618;283;38917;-33
2023/05/23 00:45:11;;;;;;;5.40;3.50;;;;;;;;;;107564;283;39929;-33
2023/05/23 00:47:48;;;;;;;5.20;3.40;;;;;;;;;;107594;286;42865;-33
2023/05/23 00:50:23;;;;;;;5.00;3.20;;;;;;;;;;107591;286;42493;-33
2023/05/23 00:53:00;;;;;;;4.70;3.10;;;;;;;;;;107660;286;38841;-33
2023/05/23 00:55:35;;;;;;;4.90;3.20;;;;;;;;;;107604;286;39856;-34
2023/05/23 00:58:12;;;;;;;5.40;3.30;;;;;;;;;;107620;283;42822;-33
2023/05/23 01:00:53;;;;;;;4.90;3.20;;;;;;;;;;107614;285;42440;-33
2023/05/23 01:03:28;;;;;;;4.60;3.00;;;;;;;;;;107615;283;39199;-33
2023/05/23 01:06:04;;;;;;;4.90;3.30;;;;;;;;;;107566;286;40001;-33
2023/05/23 01:08:41;;;;;;;5.00;3.40;;;;;;;;;;107643;286;42889;-33
2023/05/23 01:11:33;;;;;;;4.80;3.00;;;;;;;;;;107626;286;42180;-33
2023/05/23 01:14:13;;;;;;;4.40;3.10;;;;;;;;;;107651;286;39139;-33
2023/05/23 01:16:56;;;;;;;5.40;3.40;;;;;;;;;;107201;278;528853;-33
2023/05/23 01:19:52;;;;;;;5.00;3.10;;;;;;;;;;107650;286;43944;-33
2023/05/23 01:22:43;;;;;;;5.60;3.30;;;;;;;;;;107720;283;42190;-33
2023/05/23 01:25:45;;;;;;;4.80;3.10;;;;;;;;;;107688;286;39373;-33
2023/05/23 01:28:19;;;;;;;;;;;;;;;;;;107775;285;39812;-33
2023/05/23 01:30:58;;;;;;;5.50;3.20;;;;;;;;;;107726;283;42977;-33
2023/05/23 01:33:35;;;;;;;5.40;3.30;;;;;;;;;;107557;286;44418;-33
2023/05/23 01:36:11;;;;;;;5.20;3.20;;;;;;;;;;107620;290;38831;-33
2023/05/23 01:38:46;;;;;;;5.50;3.30;;;;;;;;;;107673;286;39704;-33
2023/05/23 01:41:23;;;;;;;5.10;3.30;;;;;;;;;;107635;285;42915;-33
2023/05/23 01:43:58;;;;;;;4.60;3.20;;;;;;;;;;107625;286;42145;-33
2023/05/23 01:46:36;;;;;;;5.30;3.40;;;;;;;;;;107638;285;40143;-33
2023/05/23 01:49:13;;;;;;;5.30;3.40;;;;;;;;;;107684;283;39713;-33
2023/05/23 01:51:49;;;;;;;5.20;3.10;;;;;;;;;;107668;286;42864;-33
2023/05/23 01:54:24;;;;;;;4.70;3.10;;;;;;;;;;107652;283;42158;-33
2023/05/23 01:57:04;;;;;;;4.80;3.00;;;;;;;;;;107556;282;38586;-33
2023/05/23 01:59:38;;;;;;;5.10;3.20;;;;;;;;;;107666;286;40814;-33
2023/05/23 02:02:14;;;;;;;4.60;3.30;;;;;;;;;;107650;283;42980;-33
2023/05/23 02:04:50;;;;;;;5.10;3.40;;;;;;;;;;107626;285;44320;-33
2023/05/23 02:07:26;;;;;;;5.80;3.30;;;;;;;;;;107607;286;38848;-33
2023/05/23 02:10:01;;;;;;;5.20;3.60;;;;;;;;;;107651;285;39758;-33
2023/05/23 02:12:36;;;;;;;5.20;3.20;;;;;;;;;;107543;283;175557;-33
2023/05/23 02:15:12;;;;;;;4.90;3.30;;;;;;;;;;107651;283;42440;-33
2023/05/23 02:17:47;;;;;;;5.00;3.20;;;;;;;;;;107689;283;39305;-33
2023/05/23 02:20:24;;;;;;;5.10;3.50;;;;;;;;;;107660;283;39430;-33
2023/05/23 02:22:58;;;;;;;5.30;3.30;;;;;;;;;;107625;278;42861;-33
2023/05/23 02:25:34;;;;;;;5.00;3.10;;;;;;;;;;107643;282;42218;-33
2023/05/23 02:28:10;;;;;;;5.20;3.50;;;;;;;;;;107599;283;38911;-33
2023/05/23 02:30:48;;;;;;;5.70;3.30;;;;;;;;;;107691;283;39675;-33
2023/05/23 02:33:25;;;;;;;5.40;3.50;;;;;;;;;;107635;290;42991;-33
2023/05/23 02:36:02;;;;;;;5.10;3.40;;;;;;;;;;107617;283;42162;-33
2023/05/23 02:38:38;;;;;;;4.80;3.00;;;;;;;;;;107658;283;46058;-34
2023/05/23 02:41:13;;;;;;;5.60;3.20;;;;;;;;;;107639;286;39851;-33
2023/05/23 02:43:52;;;;;;;5.60;3.60;;;;;;;;;;107645;286;42990;-34
2023/05/23 02:46:28;;;;;;;4.60;3.30;;;;;;;;;;107576;282;42352;-33
2023/05/23 02:49:03;;;;;;;5.40;3.50;;;;;;;;;;107665;282;38962;-33
2023/05/23 02:51:37;;;;;;;5.00;3.20;;;;;;;;;;107667;286;39846;-33
2023/05/23 02:54:10;;;;;;;6.00;3.30;;;;;;;;;;107533;283;196003;-33
2023/05/23 02:56:46;;;;;;;4.80;3.20;;;;;;;;;;107622;283;42252;-33
2023/05/23 02:59:20;;;;;;;5.30;3.50;;;;;;;;;;107624;286;38883;-33
2023/05/23 03:01:54;;;;;;;5.20;3.10;;;;;;;;;;107658;278;39720;-33
2023/05/23 03:04:28;;;;;;;4.80;3.20;;;;;;;;;;107636;286;42904;-33
2023/05/23 03:07:05;;;;;;;4.80;3.30;;;;;;;;;;107623;286;42018;-33
2023/05/23 03:09:49;;;;;;;5.50;3.60;;;;;;;;;;107639;286;38592;-33
2023/05/23 03:12:23;;;;;;;5.90;3.50;;;;;;;;;;107614;278;39811;-33
2023/05/23 03:15:00;;;;;;;5.20;3.40;;;;;;;;;;107645;283;42928;-33
2023/05/23 03:17:34;;;;;;;5.40;3.30;;;;;;;;;;107606;283;42129;-33
2023/05/23 03:20:10;;;;;;;5.20;3.30;;;;;;;;;;107673;286;38812;-33
2023/05/23 03:22:47;;;;;;;4.80;3.20;;;;;;;;;;107669;286;39843;-33
2023/05/23 03:25:22;;;;;;;5.10;3.40;;;;;;;;;;107629;286;42663;-33
2023/05/23 03:27:57;;;;;;;4.90;3.40;;;;;;;;;;107631;278;43231;-33
2023/05/23 03:30:34;;;;;;;4.80;3.20;;;;;;;;;;107656;283;38817;-33
2023/05/23 03:33:08;;;;;;;5.40;3.60;;;;;;;;;;107692;286;39689;-33
2023/05/23 03:35:47;;;;;;;5.10;3.40;;;;;;;;;;107655;283;42938;-33
2023/05/23 03:38:24;;;;;;;5.30;3.50;;;;;;;;;;107638;283;42180;-33
2023/05/23 03:40:58;;;;;;;5.00;3.30;;;;;;;;;;107653;286;38750;-33
2023/05/23 03:43:33;;;;;;;5.20;3.60;;;;;;;;;;107676;283;39746;-34
2023/05/23 03:46:10;;;;;;;5.00;3.60;;;;;;;;;;107684;282;43028;-34
2023/05/23 03:48:47;;;;;;;4.80;3.40;;;;;;;;;;107677;286;42265;-34
2023/05/23 03:51:23;;;;;;;5.20;3.50;;;;;;;;;;107656;283;38849;-34
2023/05/23 03:53:59;;;;;;;5.10;3.60;;;;;;;;;;107668;278;39656;-33
2023/05/23 03:56:38;;;;;;;5.00;3.50;;;;;;;;;;107648;283;43244;-33
2023/05/23 03:59:14;;;;;;;5.40;3.60;;;;;;;;;;107651;283;42312;-33
2023/05/23 04:01:49;;;;;;;5.20;3.50;;;;;;;;;;107677;286;38831;-33
2023/05/23 04:04:25;;;;;;;5.50;3.40;;;;;;;;;;107563;286;175531;-33
2023/05/23 04:07:02;;;;;;;5.30;3.60;;;;;;;;;;107647;286;42976;-34
2023/05/23 04:09:39;;;;;;;5.30;3.50;;;;;;;;;;107619;283;42149;-33
2023/05/23 04:12:16;;;;;;;5.10;3.50;;;;;;;;;;107625;283;38811;-33
2023/05/23 04:14:52;;;;;;;5.40;3.60;;;;;;;;;;107623;290;41117;-33
2023/05/23 04:17:31;;;;;;;5.30;3.50;;;;;;;;;;107576;283;43045;-33
2023/05/23 04:20:11;;;;;;;4.90;3.80;;;;;;;;;;107585;283;42290;-33
2023/05/23 04:22:45;;;;;;;5.10;3.60;;;;;;;;;;107629;283;38816;-33
2023/05/23 04:25:21;;;;;;;5.20;3.50;;;;;;;;;;107632;286;39682;-34
2023/05/23 04:27:58;;;;;;;5.50;3.70;;;;;;;;;;107608;278;43121;-33
2023/05/23 04:30:33;;;;;;;5.90;3.60;;;;;;;;;;107633;286;42173;-33
2023/05/23 04:33:10;;;;;;;5.10;3.50;;;;;;;;;;107590;286;39516;-33
2023/05/23 04:35:45;;;;;;;4.90;3.30;;;;;;;;;;107610;286;39698;-33
2023/05/23 04:38:20;;;;;;;5.30;3.80;;;;;;;;;;107617;283;42927;-33
2023/05/23 04:40:56;;;;;;;5.60;3.60;;;;;;;;;;107602;283;47944;-33
2023/05/23 04:43:32;;;;;;;5.90;3.90;;;;;;;;;;107017;283;892263;-33
2023/05/23 04:46:06;;;;;;;5.70;3.80;;;;;;;;;;107659;286;39960;-33
2023/05/23 04:48:41;;;;;;;5.20;3.90;;;;;;;;;;107041;286;892253;-33
2023/05/23 04:51:15;;;;;;;5.70;3.60;;;;;;;;;;107599;283;48837;-33
2023/05/23 04:53:49;;;;;;;6.70;3.80;;;;;;;;;;107642;286;38910;-33
2023/05/23 04:56:26;;;;;;;5.20;3.70;;;;;;;;;;107638;286;40827;-33
2023/05/23 04:59:00;;;;;;;5.50;3.70;;;;;;;;;;107657;286;43964;-33
2023/05/23 05:01:34;;;;;;;5.20;3.80;;;;;;;;;;107631;286;49379;-33
2023/05/23 05:04:07;;;;;;;7.20;4.00;;;;;;;;;;107609;286;39860;-33
2023/05/23 05:06:43;;;;;;;6.40;4.10;;;;;;;;;;107629;286;39437;-33
2023/05/23 05:09:17;;;;;;;6.20;4.00;;;;;;;;;;106986;283;892910;-33
2023/05/23 05:11:51;;;;;;;5.70;4.10;;;;;;;;;;107602;283;48822;-33
2023/05/23 05:14:25;;;;;;;5.80;3.80;;;;;;;;;;107636;286;39929;-34
2023/05/23 05:17:01;;;;;;;6.50;4.30;;;;;;;;;;107643;283;40699;-33
2023/05/23 05:19:35;;;;;;;5.70;4.20;;;;;;;;;;107611;283;43994;-33
2023/05/23 05:22:09;;;;;;;5.50;3.90;;;;;;;;;;107602;282;49084;-33
2023/05/23 05:24:43;;;;;;;6.20;4.10;;;;;;;;;;107634;283;39876;-33
2023/05/23 05:27:17;;;;;;;5.70;4.00;;;;;;;;;;107666;286;39877;-34
2023/05/23 05:29:56;;;;;;;6.10;4.20;;;;;;;;;;107639;283;42906;-33
2023/05/23 05:32:30;;;;;;;6.60;4.10;;;;;;;;;;107589;283;47624;-34
2023/05/23 05:35:04;;;;;;;6.00;4.20;;;;;;;;;;107646;286;39891;-33
2023/05/23 05:37:38;;;;;;;6.80;4.40;;;;;;;;;;107638;283;39664;-33
2023/05/23 05:40:16;;;;;;;6.40;4.50;;;;;;;;;;107649;286;42964;-33
2023/05/23 05:42:49;;;;;;;6.70;4.30;;;;;;;;;;107594;283;47814;-33
2023/05/23 05:45:24;;;;;;;6.40;4.20;;;;;;;;;;107654;283;38903;-34
2023/05/23 05:47:59;;;;;;;6.70;4.00;;;;;;;;;;107630;285;39762;-33
2023/05/23 05:50:36;;;;;;;6.10;4.10;;;;;;;;;;107515;285;175544;-33
2023/05/23 05:53:10;;;;;;;7.70;4.00;;;;;;;;;;107591;278;47885;-34
2023/05/23 05:55:44;;;;;;;6.40;4.30;;;;;;;;;;107476;285;40942;-33
2023/05/23 05:58:19;;;;;;;6.30;4.10;;;;;;;;;;107623;278;39926;-33
2023/05/23 06:00:53;;;;;;;6.60;4.30;;;;;;;;;;107410;287;43045;-35
2023/05/23 06:03:26;;;;;;;6.00;4.00;;;;;;;;;;107412;279;49075;-35
2023/05/23 06:06:00;;;;;;;7.70;4.30;;;;;;;;;;107450;283;38829;-35
2023/05/23 06:08:33;;;;;;;6.10;4.10;;;;;;;;;;107478;283;39692;-35
2023/05/23 06:11:08;;;;;;;6.60;4.10;;;;;;;;;;107486;283;43048;-36
2023/05/23 06:13:44;;;;;;;5.90;4.20;;;;;;;;;;107550;283;49502;-37
2023/05/23 06:16:17;;;;;;;6.80;4.40;;;;;;;;;;107467;283;38967;-37
2023/05/23 06:18:50;;;;;;;7.20;4.20;;;;;;;;;;107476;283;39693;-35
2023/05/23 06:21:25;;;;;;;6.70;4.00;;;;;;;;;;107501;286;44062;-35
2023/05/23 06:23:58;;;;;;;6.70;4.10;;;;;;;;;;107457;286;49024;-36
2023/05/23 06:26:32;;;;;;;6.00;3.90;;;;;;;;;;107499;283;39822;-37
2023/05/23 06:29:06;;;;;;;5.90;3.80;;;;;;;;;;107500;283;40821;-37
2023/05/23 06:31:40;;;;;;;6.20;4.00;;;;;;;;;;107366;286;175143;-37
2023/05/23 06:34:13;;;;;;;5.50;3.80;;;;;;;;;;107482;283;47987;-37
2023/05/23 06:36:47;;;;;;;6.80;3.90;;;;;;;;;;107486;286;38896;-37
2023/05/23 06:39:20;;;;;;;6.70;3.80;;;;;;;;;;107517;283;39770;-36
2023/05/23 06:41:55;;;;;;;7.10;3.90;;;;;;;;;;107494;283;43258;-36
2023/05/23 06:44:30;;;;;;;6.00;3.80;;;;;;;;;;107461;286;49250;-36
2023/05/23 06:47:03;;;;;;;6.40;3.90;;;;;;;;;;107490;286;38797;-36
2023/05/23 06:49:37;;;;;;;6.80;3.80;;;;;;;;;;107526;286;40876;-37
2023/05/23 06:52:10;;;;;;;6.20;3.70;;;;;;;;;;107512;286;43244;-37
2023/05/23 06:54:44;;;;;;;7.50;3.90;;;;;;;;;;107467;283;48095;-36
2023/05/23 06:57:22;;;;;;;5.60;3.50;;;;;;;;;;107512;283;40156;-35
2023/05/23 06:59:58;;;;;;;5.20;3.60;;;;;;;;;;107540;283;39751;-35
2023/05/23 07:02:35;;;;;;;6.20;3.50;;;;;;;;;;107516;283;43032;-35
2023/05/23 07:05:10;;;;;;;6.60;4.10;;;;;;;;;;107536;286;48706;-36
2023/05/23 07:07:44;;;;;;;6.70;3.60;;;;;;;;;;107552;286;39290;-36
2023/05/23 07:10:21;;;;;;;6.20;3.60;;;;;;;;;;107545;286;39693;-36
2023/05/23 07:12:58;;;;;;;6.20;3.60;;;;;;;;;;107464;286;43152;-35
2023/05/23 07:15:31;;;;;;;5.50;3.60;;;;;;;;;;107466;286;48083;-35
2023/05/23 07:18:05;;;;;;;5.70;3.30;;;;;;;;;;107496;283;38590;-36
2023/05/23 07:20:40;;;;;;;5.30;3.40;;;;;;;;;;107490;286;40899;-36
2023/05/23 07:23:16;;;;;;;6.00;3.60;;;;;;;;;;107478;283;42668;-36
2023/05/23 07:25:51;;;;;;;6.30;3.60;;;;;;;;;;107525;283;49536;-37
2023/05/23 07:28:35;;;;;;;5.60;3.60;;;;;;;;;;107510;283;39930;-37
2023/05/23 07:31:10;;;;;;;6.40;3.70;;;;;;;;;;107480;279;39750;-37
2023/05/23 07:33:44;;;;;;;5.90;3.40;;;;;;;;;;107483;286;42871;-36
2023/05/23 07:36:21;;;;;;;6.30;3.60;;;;;;;;;;107367;283;175490;-36
2023/05/23 07:38:56;;;;;;;5.70;3.70;;;;;;;;;;107513;283;38848;-35
2023/05/23 07:41:29;;;;;;;5.80;3.60;;;;;;;;;;107517;283;39761;-37
2023/05/23 07:44:03;;;;;;;5.80;3.80;;;;;;;;;;107442;283;43421;-36
2023/05/23 07:46:36;;;;;;;4.90;3.40;;;;;;;;;;107484;283;42305;-35
2023/05/23 07:49:11;;;;;;;5.50;3.80;;;;;;;;;;107533;283;38962;-37
2023/05/23 07:51:46;;;;;;;6.10;3.90;;;;;;;;;;107502;283;39740;-38
2023/05/23 07:54:19;;;;;;;5.60;3.60;;;;;;;;;;107452;283;43914;-36
2023/05/23 07:56:54;;;;;;;5.60;3.90;;;;;;;;;;107462;283;41237;-36
2023/05/23 07:59:28;;;;;;;5.80;3.80;;;;;;;;;;107501;283;38933;-36
2023/05/23 08:02:04;;;;;;;6.10;3.90;;;;;;;;;;107477;283;40941;-37
2023/05/23 08:04:39;;;;;;;5.60;3.40;;;;;;;;;;107451;283;42888;-36
2023/05/23 08:07:13;;;;;;;5.60;3.60;;;;;;;;;;107407;283;42315;-35
2023/05/23 08:09:50;;;;;;;6.70;3.80;;;;;;;;;;107539;286;38778;-37
2023/05/23 08:12:23;;;;;;;5.30;3.70;;;;;;;;;;107511;286;39770;-36
2023/05/23 08:14:57;;;;;;;5.00;3.20;;;;;;;;;;107489;286;44079;-37
2023/05/23 08:17:32;;;;;;;5.90;3.70;;;;;;;;;;107479;283;42446;-36
2023/05/23 08:20:10;;;;;;;5.50;3.60;;;;;;;;;;107478;286;38911;-36
2023/05/23 08:22:44;;;;;;;6.00;3.50;;;;;;;;;;107502;286;40876;-36
2023/05/23 08:25:18;;;;;;;6.20;3.50;;;;;;;;;;107499;285;42804;-37
2023/05/23 08:27:53;;;;;;;5.60;3.30;;;;;;;;;;107643;283;42270;-37
2023/05/23 08:30:28;;;;;;;5.20;3.30;;;;;;;;;;107476;284;40856;-36
2023/05/23 08:33:03;;;;;;;4.90;3.20;;;;;;;;;;107445;285;39995;-36
2023/05/23 08:35:38;;;;;;;5.20;3.50;;;;;;;;;;107423;285;43008;-36
2023/05/23 08:38:13;;;;;;;5.40;3.60;;;;;;;;;;107451;286;42228;-36
2023/05/23 08:40:54;;;;;;;5.00;3.20;;;;;;;;;;107455;287;39800;-36
2023/05/23 08:43:31;;;;;;;4.80;3.30;;;;;;;;;;107429;286;39788;-36
2023/05/23 08:46:07;;;;;;;5.00;3.20;;;;;;;;;;107411;284;42861;-36
2023/05/23 08:48:42;;;;;;;4.90;3.30;;;;;;;;;;107369;287;175161;-36
2023/05/23 08:51:16;;;;;;;6.30;3.30;;;;;;;;;;107471;284;38835;-36
2023/05/23 08:53:55;;;;;;;4.70;3.20;;;;;;;;;;107482;286;39732;-36
2023/05/23 08:56:31;;;;;;;5.50;3.30;;;;;;;;;;107434;283;42892;-36
2023/05/23 08:59:05;;;;;;;5.40;3.10;;;;;;;;;;107485;286;44388;-36
2023/05/23 09:01:41;;;;;;;5.50;3.40;;;;;;;;;;107465;283;38818;-36
2023/05/23 09:04:15;;;;;;;5.30;3.30;;;;;;;;;;107529;283;39948;-36
2023/05/23 09:06:49;;;;;;;4.90;3.10;;;;;;;;;;107432;283;42998;-36
2023/05/23 09:09:25;;;;;;;5.50;3.20;;;;;;;;;;107480;283;42257;-36
2023/05/23 09:12:02;;;;;;;4.90;3.20;;;;;;;;;;107490;283;38783;-36
2023/05/23 09:14:36;;;;;;;6.30;3.20;;;;;;;;;;107489;283;39738;-36
2023/05/23 09:17:09;;;;;;;4.50;2.90;;;;;;;;;;106957;284;638403;-35
2023/05/23 09:19:48;;;;;;;4.90;3.20;;;;;;;;;;107609;283;42063;-35
2023/05/23 09:22:27;;;;;;;5.20;3.30;;;;;;;;;;107608;287;38787;-35
2023/05/23 09:25:02;;;;;;;5.60;3.20;;;;;;;;;;107590;286;40013;-36
2023/05/23 09:27:38;;;;;;;5.00;3.00;;;;;;;;;;107473;283;42967;-36
2023/05/23 09:30:15;;;;;;;5.70;3.10;;;;;;;;;;107445;285;41963;-35
2023/05/23 09:33:01;;;;;;;4.80;2.80;;;;;;;;;;107463;284;38536;-36
2023/05/23 09:35:46;;;;;;;4.80;3.00;;;;;;;;;;107444;284;39449;-35
2023/05/23 09:38:23;;;;;;;5.60;3.20;;;;;;;;;;107691;283;48697;-35
2023/05/23 09:40:58;;;;;;;5.20;3.00;;;;;;;;;;107452;284;42001;-36
2023/05/23 09:43:32;;;;;;;4.60;3.00;;;;;;;;;;107488;285;39882;-35
2023/05/23 09:46:11;;;;;;;5.70;3.00;;;;;;;;;;107608;277;40918;-34
2023/05/23 09:48:50;;;;;;;4.70;2.80;;;;;;;;;;107677;282;49614;-35
2023/05/23 09:51:25;;;;;;;5.30;3.00;;;;;;;;;;107616;277;41891;-36
2023/05/23 09:53:58;;;;;;;4.70;2.80;;;;;;;;;;107626;283;38849;-35
2023/05/23 09:56:35;;;;;;;4.80;2.90;;;;;;;;;;107587;277;39829;-35
2023/05/23 09:59:16;;;;;;;6.50;2.70;;;;;;;;;;107577;277;48759;-36
2023/05/23 10:01:52;;;;;;;4.90;2.50;;;;;;;;;;107580;282;42328;-36
2023/05/23 10:04:30;;;;;;;4.90;2.70;;;;;;;;;;107602;285;38780;-35
2023/05/23 10:07:14;;;;;;;5.10;2.70;;;;;;;;;;107558;277;39669;-36
2023/05/23 10:09:56;;;;;;;4.60;2.50;;;;;;;;;;106918;282;911467;-36
2023/05/23 10:12:45;;;;;;;4.40;2.70;;;;;;;;;;107633;284;41863;-34
2023/05/23 10:15:20;;;;;;;4.70;2.60;;;;;;;;;;107586;283;38575;-31
2023/05/23 10:18:08;;;;;;;5.10;2.80;;;;;;;;;;107487;283;39865;-31
2023/05/23 10:20:48;;;;;;;4.60;2.80;;;;;;;;;;107545;283;42998;-31
2023/05/23 10:23:23;;;;;;;9.00;3.10;;;;;;;;;;107494;287;43164;-33
2023/05/23 10:25:58;;;;;;;4.50;2.70;;;;;;;;;;107540;284;38713;-33
2023/05/23 10:28:34;;;;;;;4.50;2.60;;;;;;;;;;107503;283;40873;-33
2023/05/23 10:31:09;;;;;;;4.10;2.40;;;;;;;;;;107537;287;43862;-33
2023/05/23 10:33:51;;;;;;;4.70;2.60;;;;;;;;;;107516;278;42161;-33
2023/05/23 10:36:33;;;;;;;5.10;2.80;;;;;;;;;;107506;286;39097;-33
2023/05/23 10:39:22;;;;;;;4.30;2.50;;;;;;;;;;107447;291;39734;-33
2023/05/23 10:42:03;;;;;;;4.70;2.70;;;;;;;;;;107517;287;42984;-33
2023/05/23 10:44:39;;;;;;;4.80;2.50;;;;;;;;;;107498;286;42339;-35
2023/05/23 10:47:12;;;;;;;4.70;2.70;;;;;;;;;;107491;283;38814;-35
2023/05/23 10:49:53;;;;;;;4.50;2.50;;;;;;;;;;107494;286;39672;-35
2023/05/23 10:52:28;;;;;;;4.30;2.70;;;;;;;;;;107479;283;42765;-35
2023/05/23 10:55:03;;;;;;;4.40;2.80;;;;;;;;;;107498;286;42318;-35
2023/05/23 10:57:37;;;;;;;4.60;2.70;;;;;;;;;;107515;283;39924;-34
2023/05/23 11:00:16;;;;;;;4.80;2.70;;;;;;;;;;107469;286;46468;-34
2023/05/23 11:03:02;;;;;;;4.50;2.80;;;;;;;;;;107533;286;44097;-34
2023/05/23 11:05:42;;;;;;;4.90;2.50;;;;;;;;;;107472;283;42189;-35
2023/05/23 11:08:19;;;;;;;4.70;2.50;;;;;;;;;;107438;283;38904;-34
2023/05/23 11:10:59;;;;;;;4.50;2.60;;;;;;;;;;107503;283;39848;-35
2023/05/23 11:14:01;;;;;;;4.70;2.50;;;;;;;;;;107512;283;42913;-34
2023/05/23 11:16:40;;;;;;;;;;;;;;;;;;107408;285;42235;-34
2023/05/23 11:19:26;;;;;;;4.20;2.70;;;;;;;;;;107363;287;38792;-34
2023/05/23 11:22:08;;;;;;;4.70;2.60;;;;;;;;;;107406;287;39838;-33
2023/05/23 11:24:56;;;;;;;5.50;2.60;;;;;;;;;;107354;285;42870;-35
2023/05/23 11:27:35;;;;;;;4.70;2.60;;;;;;;;;;107431;287;43587;-34
2023/05/23 11:30:12;;;;;;;5.00;2.70;;;;;;;;;;107373;287;39949;-34
2023/05/23 11:32:55;;;;;;;4.20;2.40;;;;;;;;;;107422;287;40890;-34
2023/05/23 11:35:31;;;;;;;4.60;2.50;;;;;;;;;;107412;280;44209;-34
2023/05/23 11:38:06;;;;;;;5.00;2.50;;;;;;;;;;107382;285;42239;-34
2023/05/23 11:40:43;;;;;;;4.80;2.60;;;;;;;;;;107404;285;39748;-32
2023/05/23 11:43:20;;;;;;;4.50;2.50;;;;;;;;;;107295;287;175795;-34
2023/05/23 11:45:55;;;;;;;4.60;2.50;;;;;;;;;;107397;284;43037;-35
2023/05/23 11:48:29;;;;;;;5.50;2.60;;;;;;;;;;107358;285;42266;-34
2023/05/23 11:51:03;;;;;;;4.40;2.60;;;;;;;;;;107351;285;38915;-35
2023/05/23 11:53:37;;;;;;;4.90;2.70;;;;;;;;;;107366;285;39721;-34
2023/05/23 11:56:13;;;;;;;5.00;2.60;;;;;;;;;;107362;288;43321;-34
2023/05/23 11:58:46;;;;;;;4.60;2.60;;;;;;;;;;107424;288;42352;-33
2023/05/23 12:01:20;;;;;;;4.10;2.50;;;;;;;;;;107322;285;38587;-33
2023/05/23 12:03:54;;;;;;;4.70;2.70;;;;;;;;;;107378;285;39923;-34
2023/05/23 12:06:30;;;;;;;4.70;2.60;;;;;;;;;;107385;280;42940;-34
2023/05/23 12:09:05;;;;;;;5.10;2.80;;;;;;;;;;107378;285;42008;-34
2023/05/23 12:11:43;;;;;;;4.80;2.70;;;;;;;;;;107340;285;44515;-34
2023/05/23 12:14:21;;;;;;;5.10;2.50;;;;;;;;;;107388;285;39707;-34
2023/05/23 12:16:57;;;;;;;4.50;2.60;;;;;;;;;;107507;286;42886;-34
2023/05/23 12:19:32;;;;;;;4.80;2.60;;;;;;;;;;107521;285;42136;-34
2023/05/23 12:22:10;;;;;;;4.70;2.60;;;;;;;;;;107541;283;44951;-34
2023/05/23 12:24:49;;;;;;;4.50;2.50;;;;;;;;;;107514;286;39688;-34
2023/05/23 12:27:30;;;;;;;4.60;2.80;;;;;;;;;;107515;284;42930;-34
2023/05/23 12:30:19;;;;;;;5.00;2.90;;;;;;;;;;107367;283;175471;-34
2023/05/23 12:32:53;;;;;;;4.10;2.50;;;;;;;;;;107620;283;38931;-34
2023/05/23 12:35:29;;;;;;;4.40;2.70;;;;;;;;;;107666;286;39455;-34
2023/05/23 12:38:07;;;;;;;4.50;2.70;;;;;;;;;;107616;286;42927;-34
2023/05/23 12:40:42;;;;;;;4.60;2.80;;;;;;;;;;107458;283;175457;-34
2023/05/23 12:43:21;;;;;;;4.20;2.50;;;;;;;;;;107580;283;39894;-33
2023/05/23 12:45:58;;;;;;;5.30;3.00;;;;;;;;;;107639;283;39690;-34
2023/05/23 12:48:37;;;;;;;4.40;2.60;;;;;;;;;;107605;283;43980;-34
2023/05/23 12:51:14;;;;;;;4.60;2.90;;;;;;;;;;107466;286;42221;-34
2023/05/23 12:53:49;;;;;;;5.10;2.90;;;;;;;;;;107531;286;39821;-34
2023/05/23 12:56:24;;;;;;;5.20;2.80;;;;;;;;;;107470;283;39489;-34
2023/05/23 12:59:00;;;;;;;5.10;2.70;;;;;;;;;;107509;283;42834;-34
2023/05/23 13:01:37;;;;;;;4.60;2.90;;;;;;;;;;107497;283;43148;-34
2023/05/23 13:04:13;;;;;;;4.60;2.70;;;;;;;;;;107522;286;38562;-34
2023/05/23 13:06:50;;;;;;;4.50;2.60;;;;;;;;;;107520;286;41271;-34
2023/05/23 13:09:25;;;;;;;4.60;2.80;;;;;;;;;;107521;283;42610;-34
2023/05/23 13:12:03;;;;;;;4.50;2.60;;;;;;;;;;106804;286;889540;-34
2023/05/23 13:14:39;;;;;;;4.20;2.70;;;;;;;;;;107522;286;38762;-34
2023/05/23 13:17:14;;;;;;;4.40;2.60;;;;;;;;;;107509;287;39679;-34
2023/05/23 13:19:49;;;;;;;4.90;3.00;;;;;;;;;;107501;284;43291;-33
2023/05/23 13:22:26;;;;;;;5.00;3.10;;;;;;;;;;107533;287;42274;-34
2023/05/23 13:25:03;;;;;;;4.80;2.90;;;;;;;;;;107534;284;38521;-34
2023/05/23 13:27:40;;;;;;;5.10;2.80;;;;;;;;;;107513;286;40860;-34
2023/05/23 13:30:15;;;;;;;4.90;2.70;;;;;;;;;;107536;283;42824;-34
2023/05/23 13:32:49;;;;;;;4.40;2.90;;;;;;;;;;107400;286;195091;-33
2023/05/23 13:35:25;;;;;;;4.80;2.90;;;;;;;;;;107520;283;39989;-34
2023/05/23 13:38:03;;;;;;;4.70;3.00;;;;;;;;;;107503;283;39744;-34
2023/05/23 13:40:38;;;;;;;4.60;2.90;;;;;;;;;;107485;286;42870;-34
2023/05/23 13:43:12;;;;;;;5.20;3.30;;;;;;;;;;107474;287;42436;-33
2023/05/23 13:45:50;;;;;;;4.90;2.70;;;;;;;;;;107532;286;39042;-34
2023/05/23 13:48:26;;;;;;;5.20;3.00;;;;;;;;;;107529;284;39974;-34
2023/05/23 13:51:11;;;;;;;5.20;3.10;;;;;;;;;;107538;283;43105;-34
2023/05/23 13:53:46;;;;;;;5.40;3.10;;;;;;;;;;107502;283;48023;-34
2023/05/23 13:56:23;;;;;;;5.10;3.00;;;;;;;;;;107504;286;39218;-34
2023/05/23 13:58:58;;;;;;;4.60;2.90;;;;;;;;;;107491;286;39720;-34
2023/05/23 14:01:32;;;;;;;5.10;3.20;;;;;;;;;;107527;283;42848;-34
2023/05/23 14:04:05;;;;;;;5.00;2.90;;;;;;;;;;107566;286;47955;-34
2023/05/23 14:06:41;;;;;;;4.50;2.90;;;;;;;;;;107515;286;40793;-34
2023/05/23 14:09:16;;;;;;;5.40;3.00;;;;;;;;;;107503;286;39864;-34
2023/05/23 14:11:51;;;;;;;5.90;3.20;;;;;;;;;;107502;287;42990;-34
2023/05/23 14:14:28;;;;;;;4.90;3.10;;;;;;;;;;107448;283;47804;-34
2023/05/23 14:17:02;;;;;;;5.10;3.20;;;;;;;;;;107500;284;38865;-34
2023/05/23 14:19:37;;;;;;;4.70;2.90;;;;;;;;;;107484;286;39678;-34
2023/05/23 14:22:12;;;;;;;5.20;3.10;;;;;;;;;;107461;283;42892;-34
2023/05/23 14:24:48;;;;;;;4.60;3.00;;;;;;;;;;107449;286;47913;-34
2023/05/23 14:27:23;;;;;;;5.00;3.40;;;;;;;;;;107480;283;38762;-34
2023/05/23 14:30:01;;;;;;;4.70;3.30;;;;;;;;;;107511;283;39629;-34
2023/05/23 14:32:37;;;;;;;5.10;3.50;;;;;;;;;;107486;283;43086;-34
2023/05/23 14:35:16;;;;;;;5.10;3.10;;;;;;;;;;107481;283;48737;-34
2023/05/23 14:37:56;;;;;;;4.50;3.10;;;;;;;;;;107524;283;38864;-34
2023/05/23 14:40:30;;;;;;;5.10;3.20;;;;;;;;;;107469;286;39855;-34
2023/05/23 14:43:06;;;;;;;4.80;3.00;;;;;;;;;;107464;283;42856;-34
2023/05/23 14:45:40;;;;;;;4.80;3.10;;;;;;;;;;107495;284;43179;-34
2023/05/23 14:48:15;;;;;;;4.60;3.10;;;;;;;;;;107471;283;38908;-33
2023/05/23 14:50:54;;;;;;;4.80;3.10;;;;;;;;;;107532;283;39836;-34
2023/05/23 14:53:29;;;;;;;4.80;3.20;;;;;;;;;;107512;283;44192;-34
2023/05/23 14:56:10;;;;;;;5.20;3.50;;;;;;;;;;107492;283;42214;-34
2023/05/23 14:58:47;;;;;;;4.60;3.10;;;;;;;;;;107528;284;38794;-34
2023/05/23 15:01:25;;;;;;;5.10;3.30;;;;;;;;;;107499;286;39672;-34
2023/05/23 15:04:00;;;;;;;4.60;3.30;;;;;;;;;;107472;286;43034;-34
2023/05/23 15:06:37;;;;;;;4.80;3.30;;;;;;;;;;107500;286;42169;-34
2023/05/23 15:09:13;;;;;;;5.00;3.30;;;;;;;;;;107505;283;38990;-34
2023/05/23 15:11:49;;;;;;;4.80;3.30;;;;;;;;;;107513;286;41045;-34
2023/05/23 15:14:30;;;;;;;4.60;3.40;;;;;;;;;;107442;286;42932;-34
2023/05/23 15:17:07;;;;;;;5.20;3.40;;;;;;;;;;107523;283;42246;-34
2023/05/23 15:19:43;;;;;;;4.90;3.30;;;;;;;;;;107526;287;38850;-34
2023/05/23 15:22:19;;;;;;;5.40;3.50;;;;;;;;;;107515;290;39437;-34
2023/05/23 15:25:11;;;;;;;5.20;3.20;;;;;;;;;;107400;286;43168;-34
2023/05/23 15:27:49;;;;;;;5.40;3.60;;;;;;;;;;107413;284;42249;-34
2023/05/23 15:30:24;;;;;;;5.10;3.40;;;;;;;;;;107421;284;39906;-34
2023/05/23 15:33:01;;;;;;;4.70;3.60;;;;;;;;;;107366;284;39860;-34
2023/05/23 15:35:40;;;;;;;5.50;3.80;;;;;;;;;;107377;285;42881;-34
2023/05/23 15:38:15;;;;;;;5.40;3.80;;;;;;;;;;107408;284;42339;-34